Forside
METAR-TAF:

METAR-TAF

Lufthavne :

Bermuda, Bermuda

Breddekreds: 32-22N, længdekreds: 064-41W, højde: 6 m

Aktuelle vejr

Denne rapport blev lavet for 10 minutter siden, kl. 09:55 UTC
Vind 13 kt fra øst
Temperatur 26°C
Fugtighed 70%
Tryk 1017 hPa
Sigt 10 km eller mere
Nogle få skyer i en højde af 3000 ft
Nogle få skyer i en højde af 6000 ft
Spredte skyer i en højde af 30000 ft

METAR: TXKF 230955Z 08013KT 9999 FEW030 FEW060 SCT300 26/20 Q1017

Tid: 07:05 (10:05 UTC)

Vejrudsigter

Denne rapport blev lavet for 4 timer og 22 minutter siden, kl. 05:43 UTC
Foreløbig gælder fra 23 på 06 UTC til 24 på 06 UTC
Vind 13 kt fra øst
Sigt 10 km eller mere
Spredte skyer i en højde af 2500 ft

TAF: TXKF 230543Z 2306/2406 09013KT 9999 SCT025

Vejrobservationer og prognoser fra mere end 4000 lufthavne (METAR og TAF).

De gule og røde prikker repræsenterer de meteorologiske stationer.

Flyt musen over at se navnet på stationen.

Så klik over at se vejr observationer og prognoser.

At skifte det kort: Klik på de grønne knapper med et sort kors for at zoome ind; på den grønne knap med en bindestreg for at zoome ud; eller på de grønne pile for tilstødende kort.


METAR-TAF: